sensor_id;sensor_type;location;lat;lon;timestamp;temperature;humidity
56869;DHT22;42754;0.000;0.000;2022-07-05T00:01:03;15.90;99.50
56869;DHT22;42754;0.000;0.000;2022-07-05T00:03:29;15.90;99.60
56869;DHT22;42754;0.000;0.000;2022-07-05T00:05:55;15.90;99.80
56869;DHT22;42754;0.000;0.000;2022-07-05T00:08:21;15.80;99.90
56869;DHT22;42754;0.000;0.000;2022-07-05T00:10:47;15.80;99.90
56869;DHT22;42754;0.000;0.000;2022-07-05T00:13:13;15.80;99.90
56869;DHT22;42754;0.000;0.000;2022-07-05T00:15:39;15.80;99.90
56869;DHT22;42754;0.000;0.000;2022-07-05T00:18:05;15.70;99.90
56869;DHT22;42754;0.000;0.000;2022-07-05T00:20:30;15.70;99.90
56869;DHT22;42754;0.000;0.000;2022-07-05T00:22:56;15.60;99.90
56869;DHT22;42754;0.000;0.000;2022-07-05T00:25:21;15.60;99.90
56869;DHT22;42754;0.000;0.000;2022-07-05T00:27:47;15.40;99.90
56869;DHT22;42754;0.000;0.000;2022-07-05T00:30:13;15.40;99.90
56869;DHT22;42754;0.000;0.000;2022-07-05T00:32:39;15.30;99.90
56869;DHT22;42754;0.000;0.000;2022-07-05T00:35:06;15.30;99.90
56869;DHT22;42754;0.000;0.000;2022-07-05T00:37:35;15.40;99.90
56869;DHT22;42754;0.000;0.000;2022-07-05T00:40:01;15.30;99.90
56869;DHT22;42754;0.000;0.000;2022-07-05T00:42:26;15.20;99.90
56869;DHT22;42754;0.000;0.000;2022-07-05T00:44:52;15.30;99.90
56869;DHT22;42754;0.000;0.000;2022-07-05T00:47:18;15.20;99.90
56869;DHT22;42754;0.000;0.000;2022-07-05T00:49:44;15.30;99.90
56869;DHT22;42754;0.000;0.000;2022-07-05T00:52:12;15.30;99.90
56869;DHT22;42754;0.000;0.000;2022-07-05T00:54:38;15.30;99.90
56869;DHT22;42754;0.000;0.000;2022-07-05T00:57:04;15.20;99.90
56869;DHT22;42754;0.000;0.000;2022-07-05T00:59:30;15.10;99.90
56869;DHT22;42754;0.000;0.000;2022-07-05T01:01:57;15.00;99.90
56869;DHT22;42754;0.000;0.000;2022-07-05T01:04:23;15.00;99.90
56869;DHT22;42754;0.000;0.000;2022-07-05T01:06:50;15.00;99.90
56869;DHT22;42754;0.000;0.000;2022-07-05T01:09:17;14.90;99.90
56869;DHT22;42754;0.000;0.000;2022-07-05T01:11:44;15.00;99.90
56869;DHT22;42754;0.000;0.000;2022-07-05T01:14:12;15.00;99.90
56869;DHT22;42754;0.000;0.000;2022-07-05T01:16:39;14.90;99.90
56869;DHT22;42754;0.000;0.000;2022-07-05T01:19:05;14.90;99.90
56869;DHT22;42754;0.000;0.000;2022-07-05T01:21:35;14.80;99.90
56869;DHT22;42754;0.000;0.000;2022-07-05T01:24:02;14.80;99.90
56869;DHT22;42754;0.000;0.000;2022-07-05T01:26:29;14.70;99.90
56869;DHT22;42754;0.000;0.000;2022-07-05T01:28:55;14.70;99.90
56869;DHT22;42754;0.000;0.000;2022-07-05T01:31:21;14.70;99.90
56869;DHT22;42754;0.000;0.000;2022-07-05T01:33:47;14.60;99.90
56869;DHT22;42754;0.000;0.000;2022-07-05T01:36:13;14.60;99.90
56869;DHT22;42754;0.000;0.000;2022-07-05T01:38:39;14.50;99.90
56869;DHT22;42754;0.000;0.000;2022-07-05T01:41:06;14.50;99.90
56869;DHT22;42754;0.000;0.000;2022-07-05T01:43:33;14.50;99.90
56869;DHT22;42754;0.000;0.000;2022-07-05T01:46:01;14.50;99.90
56869;DHT22;42754;0.000;0.000;2022-07-05T01:48:29;14.50;99.90
56869;DHT22;42754;0.000;0.000;2022-07-05T01:51:13;14.40;99.90
56869;DHT22;42754;0.000;0.000;2022-07-05T01:53:42;14.40;99.90
56869;DHT22;42754;0.000;0.000;2022-07-05T01:56:08;14.30;99.90
56869;DHT22;42754;0.000;0.000;2022-07-05T01:58:35;14.30;99.90
56869;DHT22;42754;0.000;0.000;2022-07-05T02:01:01;14.30;99.90
56869;DHT22;42754;0.000;0.000;2022-07-05T02:03:27;14.30;99.90
56869;DHT22;42754;0.000;0.000;2022-07-05T02:05:52;14.20;99.90
56869;DHT22;42754;0.000;0.000;2022-07-05T02:08:19;14.20;99.90
56869;DHT22;42754;0.000;0.000;2022-07-05T02:10:45;14.20;99.90
56869;DHT22;42754;0.000;0.000;2022-07-05T02:13:14;14.30;99.90
56869;DHT22;42754;0.000;0.000;2022-07-05T02:15:41;14.20;99.90
56869;DHT22;42754;0.000;0.000;2022-07-05T02:18:08;14.20;99.90
56869;DHT22;42754;0.000;0.000;2022-07-05T02:20:34;14.20;99.90
56869;DHT22;42754;0.000;0.000;2022-07-05T02:23:00;14.20;99.90
56869;DHT22;42754;0.000;0.000;2022-07-05T02:25:26;14.10;99.90
56869;DHT22;42754;0.000;0.000;2022-07-05T02:27:53;14.10;99.90
56869;DHT22;42754;0.000;0.000;2022-07-05T02:30:18;14.10;99.90
56869;DHT22;42754;0.000;0.000;2022-07-05T02:32:44;14.00;99.90
56869;DHT22;42754;0.000;0.000;2022-07-05T02:35:11;13.90;99.90
56869;DHT22;42754;0.000;0.000;2022-07-05T02:37:37;14.00;99.90
56869;DHT22;42754;0.000;0.000;2022-07-05T02:40:11;13.90;99.90
56869;DHT22;42754;0.000;0.000;2022-07-05T02:42:38;13.70;99.90
56869;DHT22;42754;0.000;0.000;2022-07-05T02:45:05;13.60;99.90
56869;DHT22;42754;0.000;0.000;2022-07-05T02:47:31;13.70;99.90
56869;DHT22;42754;0.000;0.000;2022-07-05T02:49:58;13.80;99.90
56869;DHT22;42754;0.000;0.000;2022-07-05T02:52:24;13.80;99.90
56869;DHT22;42754;0.000;0.000;2022-07-05T02:54:50;13.80;99.90
56869;DHT22;42754;0.000;0.000;2022-07-05T02:57:15;13.60;99.90
56869;DHT22;42754;0.000;0.000;2022-07-05T02:59:41;13.60;99.90
56869;DHT22;42754;0.000;0.000;2022-07-05T03:02:06;13.70;99.90
56869;DHT22;42754;0.000;0.000;2022-07-05T03:04:32;13.60;99.90
56869;DHT22;42754;0.000;0.000;2022-07-05T03:06:58;13.60;99.90
56869;DHT22;42754;0.000;0.000;2022-07-05T03:09:23;13.70;99.90
56869;DHT22;42754;0.000;0.000;2022-07-05T03:11:49;13.80;99.90
56869;DHT22;42754;0.000;0.000;2022-07-05T03:14:14;13.80;99.90
56869;DHT22;42754;0.000;0.000;2022-07-05T03:16:40;13.90;99.90
56869;DHT22;42754;0.000;0.000;2022-07-05T03:19:06;13.80;99.90
56869;DHT22;42754;0.000;0.000;2022-07-05T03:21:31;13.80;99.90
56869;DHT22;42754;0.000;0.000;2022-07-05T03:23:57;13.80;99.90
56869;DHT22;42754;0.000;0.000;2022-07-05T03:26:22;13.80;99.90
56869;DHT22;42754;0.000;0.000;2022-07-05T03:28:50;13.90;99.90
56869;DHT22;42754;0.000;0.000;2022-07-05T03:31:16;13.90;99.90
56869;DHT22;42754;0.000;0.000;2022-07-05T03:33:42;13.90;99.90
56869;DHT22;42754;0.000;0.000;2022-07-05T03:36:08;13.90;99.90
56869;DHT22;42754;0.000;0.000;2022-07-05T03:38:34;13.90;99.90
56869;DHT22;42754;0.000;0.000;2022-07-05T03:40:59;14.00;99.90
56869;DHT22;42754;0.000;0.000;2022-07-05T03:43:25;14.00;99.90
56869;DHT22;42754;0.000;0.000;2022-07-05T03:45:51;14.10;99.90
56869;DHT22;42754;0.000;0.000;2022-07-05T03:48:16;14.10;99.90
56869;DHT22;42754;0.000;0.000;2022-07-05T03:50:42;14.10;99.90
56869;DHT22;42754;0.000;0.000;2022-07-05T03:53:07;14.20;99.90
56869;DHT22;42754;0.000;0.000;2022-07-05T03:55:33;14.20;99.90
56869;DHT22;42754;0.000;0.000;2022-07-05T03:57:59;14.20;99.90
56869;DHT22;42754;0.000;0.000;2022-07-05T04:00:24;14.20;99.90
56869;DHT22;42754;0.000;0.000;2022-07-05T04:02:50;14.30;99.90
56869;DHT22;42754;0.000;0.000;2022-07-05T04:05:15;14.30;99.90
56869;DHT22;42754;0.000;0.000;2022-07-05T04:07:49;14.40;99.90
56869;DHT22;42754;0.000;0.000;2022-07-05T04:10:15;14.40;99.90
56869;DHT22;42754;0.000;0.000;2022-07-05T04:12:41;14.50;99.90
56869;DHT22;42754;0.000;0.000;2022-07-05T04:15:07;14.40;99.90
56869;DHT22;42754;0.000;0.000;2022-07-05T04:17:33;14.50;99.90
56869;DHT22;42754;0.000;0.000;2022-07-05T04:19:58;14.60;99.90
56869;DHT22;42754;0.000;0.000;2022-07-05T04:22:24;14.60;99.90
56869;DHT22;42754;0.000;0.000;2022-07-05T04:24:49;14.60;99.90
56869;DHT22;42754;0.000;0.000;2022-07-05T04:27:34;14.60;99.90
56869;DHT22;42754;0.000;0.000;2022-07-05T04:29:59;14.60;99.90
56869;DHT22;42754;0.000;0.000;2022-07-05T04:32:25;14.50;99.90
56869;DHT22;42754;0.000;0.000;2022-07-05T04:34:50;14.50;99.90
56869;DHT22;42754;0.000;0.000;2022-07-05T04:37:17;14.60;99.90
56869;DHT22;42754;0.000;0.000;2022-07-05T04:39:42;14.60;99.90
56869;DHT22;42754;0.000;0.000;2022-07-05T04:42:08;14.70;99.90
56869;DHT22;42754;0.000;0.000;2022-07-05T04:44:34;14.70;99.90
56869;DHT22;42754;0.000;0.000;2022-07-05T04:47:00;14.70;99.90
56869;DHT22;42754;0.000;0.000;2022-07-05T04:49:25;14.70;99.90
56869;DHT22;42754;0.000;0.000;2022-07-05T04:51:51;14.80;99.90
56869;DHT22;42754;0.000;0.000;2022-07-05T04:54:16;14.80;99.90
56869;DHT22;42754;0.000;0.000;2022-07-05T04:56:42;14.80;99.90
56869;DHT22;42754;0.000;0.000;2022-07-05T04:59:07;14.90;99.90
56869;DHT22;42754;0.000;0.000;2022-07-05T05:01:33;15.00;99.90
56869;DHT22;42754;0.000;0.000;2022-07-05T05:03:59;15.10;99.90
56869;DHT22;42754;0.000;0.000;2022-07-05T05:06:24;15.10;99.90
56869;DHT22;42754;0.000;0.000;2022-07-05T05:08:50;15.20;99.90
56869;DHT22;42754;0.000;0.000;2022-07-05T05:11:16;15.20;99.90
56869;DHT22;42754;0.000;0.000;2022-07-05T05:13:41;15.30;99.90
56869;DHT22;42754;0.000;0.000;2022-07-05T05:16:10;15.30;99.90
56869;DHT22;42754;0.000;0.000;2022-07-05T05:18:36;15.40;99.90
56869;DHT22;42754;0.000;0.000;2022-07-05T05:21:02;15.40;99.90
56869;DHT22;42754;0.000;0.000;2022-07-05T05:23:27;15.40;99.90
56869;DHT22;42754;0.000;0.000;2022-07-05T05:25:53;15.50;99.90
56869;DHT22;42754;0.000;0.000;2022-07-05T05:28:19;15.50;99.90
56869;DHT22;42754;0.000;0.000;2022-07-05T05:30:44;15.60;99.90
56869;DHT22;42754;0.000;0.000;2022-07-05T05:33:10;15.80;99.90
56869;DHT22;42754;0.000;0.000;2022-07-05T05:35:36;15.80;99.90
56869;DHT22;42754;0.000;0.000;2022-07-05T05:38:01;15.70;99.90
56869;DHT22;42754;0.000;0.000;2022-07-05T05:40:27;15.90;99.90
56869;DHT22;42754;0.000;0.000;2022-07-05T05:42:54;15.90;99.90
56869;DHT22;42754;0.000;0.000;2022-07-05T05:45:20;16.00;99.90
56869;DHT22;42754;0.000;0.000;2022-07-05T05:47:51;16.10;99.90
56869;DHT22;42754;0.000;0.000;2022-07-05T05:52:45;16.50;99.90
56869;DHT22;42754;0.000;0.000;2022-07-05T05:55:11;16.50;99.90
56869;DHT22;42754;0.000;0.000;2022-07-05T05:57:37;16.70;99.90
56869;DHT22;42754;0.000;0.000;2022-07-05T06:00:05;16.60;99.90
56869;DHT22;42754;0.000;0.000;2022-07-05T06:02:31;16.80;99.90
56869;DHT22;42754;0.000;0.000;2022-07-05T06:04:57;16.90;99.90
56869;DHT22;42754;0.000;0.000;2022-07-05T06:07:22;17.20;99.90
56869;DHT22;42754;0.000;0.000;2022-07-05T06:09:48;17.40;99.90
56869;DHT22;42754;0.000;0.000;2022-07-05T06:12:14;17.40;99.90
56869;DHT22;42754;0.000;0.000;2022-07-05T06:14:40;17.40;99.90
56869;DHT22;42754;0.000;0.000;2022-07-05T06:17:05;17.40;99.90
56869;DHT22;42754;0.000;0.000;2022-07-05T06:19:31;17.40;99.90
56869;DHT22;42754;0.000;0.000;2022-07-05T06:21:56;17.70;99.90
56869;DHT22;42754;0.000;0.000;2022-07-05T06:24:22;17.90;99.90
56869;DHT22;42754;0.000;0.000;2022-07-05T06:26:50;18.10;99.90
56869;DHT22;42754;0.000;0.000;2022-07-05T06:29:18;18.20;99.90
56869;DHT22;42754;0.000;0.000;2022-07-05T06:31:44;18.30;99.90
56869;DHT22;42754;0.000;0.000;2022-07-05T06:34:10;18.50;99.90
56869;DHT22;42754;0.000;0.000;2022-07-05T06:36:35;18.50;99.90
56869;DHT22;42754;0.000;0.000;2022-07-05T06:39:01;19.10;99.90
56869;DHT22;42754;0.000;0.000;2022-07-05T06:41:26;19.30;99.90
56869;DHT22;42754;0.000;0.000;2022-07-05T06:43:52;19.40;99.90
56869;DHT22;42754;0.000;0.000;2022-07-05T06:46:18;19.60;99.90
56869;DHT22;42754;0.000;0.000;2022-07-05T06:48:43;19.60;99.90
56869;DHT22;42754;0.000;0.000;2022-07-05T06:51:09;19.60;99.90
56869;DHT22;42754;0.000;0.000;2022-07-05T06:53:35;19.80;99.90
56869;DHT22;42754;0.000;0.000;2022-07-05T06:56:01;19.60;99.90
56869;DHT22;42754;0.000;0.000;2022-07-05T06:58:26;19.50;99.90
56869;DHT22;42754;0.000;0.000;2022-07-05T07:00:52;19.30;99.90
56869;DHT22;42754;0.000;0.000;2022-07-05T07:03:18;19.70;99.90
56869;DHT22;42754;0.000;0.000;2022-07-05T07:05:44;19.70;99.90
56869;DHT22;42754;0.000;0.000;2022-07-05T07:08:10;20.00;99.90
56869;DHT22;42754;0.000;0.000;2022-07-05T07:10:54;20.20;99.90
56869;DHT22;42754;0.000;0.000;2022-07-05T07:13:19;20.30;99.90
56869;DHT22;42754;0.000;0.000;2022-07-05T07:15:45;20.30;99.50
56869;DHT22;42754;0.000;0.000;2022-07-05T07:18:14;20.40;99.70
56869;DHT22;42754;0.000;0.000;2022-07-05T07:20:41;20.20;99.80
56869;DHT22;42754;0.000;0.000;2022-07-05T07:23:06;20.10;99.10
56869;DHT22;42754;0.000;0.000;2022-07-05T07:25:32;20.20;98.80
56869;DHT22;42754;0.000;0.000;2022-07-05T07:27:58;20.70;98.60
56869;DHT22;42754;0.000;0.000;2022-07-05T07:30:26;21.20;98.20
56869;DHT22;42754;0.000;0.000;2022-07-05T07:32:52;21.20;98.00
56869;DHT22;42754;0.000;0.000;2022-07-05T07:35:18;21.50;97.30
56869;DHT22;42754;0.000;0.000;2022-07-05T07:37:43;21.80;96.70
56869;DHT22;42754;0.000;0.000;2022-07-05T07:40:09;22.10;96.80
56869;DHT22;42754;0.000;0.000;2022-07-05T07:42:35;22.50;94.40
56869;DHT22;42754;0.000;0.000;2022-07-05T07:45:01;22.20;95.50
56869;DHT22;42754;0.000;0.000;2022-07-05T07:47:30;22.50;94.40
56869;DHT22;42754;0.000;0.000;2022-07-05T07:49:56;22.30;94.70
56869;DHT22;42754;0.000;0.000;2022-07-05T07:52:21;22.30;94.50
56869;DHT22;42754;0.000;0.000;2022-07-05T07:54:47;22.30;93.60
56869;DHT22;42754;0.000;0.000;2022-07-05T07:57:12;22.30;91.00
56869;DHT22;42754;0.000;0.000;2022-07-05T07:59:38;21.80;93.10
56869;DHT22;42754;0.000;0.000;2022-07-05T08:02:04;22.20;93.50
56869;DHT22;42754;0.000;0.000;2022-07-05T08:04:29;21.70;93.20
56869;DHT22;42754;0.000;0.000;2022-07-05T08:06:55;21.90;92.70
56869;DHT22;42754;0.000;0.000;2022-07-05T08:09:20;21.90;93.30
56869;DHT22;42754;0.000;0.000;2022-07-05T08:11:47;22.00;92.80
56869;DHT22;42754;0.000;0.000;2022-07-05T08:14:14;22.20;92.40
56869;DHT22;42754;0.000;0.000;2022-07-05T08:16:39;22.30;90.80
56869;DHT22;42754;0.000;0.000;2022-07-05T08:19:05;22.10;91.70
56869;DHT22;42754;0.000;0.000;2022-07-05T08:21:49;22.00;90.40
56869;DHT22;42754;0.000;0.000;2022-07-05T08:24:15;21.90;91.60
56869;DHT22;42754;0.000;0.000;2022-07-05T08:26:42;21.90;91.20
56869;DHT22;42754;0.000;0.000;2022-07-05T08:29:10;22.10;92.80
56869;DHT22;42754;0.000;0.000;2022-07-05T08:31:45;22.20;91.60
56869;DHT22;42754;0.000;0.000;2022-07-05T08:34:11;22.00;90.80
56869;DHT22;42754;0.000;0.000;2022-07-05T08:36:38;22.10;92.10
56869;DHT22;42754;0.000;0.000;2022-07-05T08:39:05;21.90;91.70
56869;DHT22;42754;0.000;0.000;2022-07-05T08:41:33;21.70;91.30
56869;DHT22;42754;0.000;0.000;2022-07-05T08:44:02;21.60;90.90
56869;DHT22;42754;0.000;0.000;2022-07-05T08:46:30;21.90;91.20
56869;DHT22;42754;0.000;0.000;2022-07-05T08:48:59;21.80;91.40
56869;DHT22;42754;0.000;0.000;2022-07-05T08:51:27;22.00;91.00
56869;DHT22;42754;0.000;0.000;2022-07-05T08:53:53;22.20;91.30
56869;DHT22;42754;0.000;0.000;2022-07-05T08:56:21;21.90;89.10
56869;DHT22;42754;0.000;0.000;2022-07-05T08:58:47;21.80;90.40
56869;DHT22;42754;0.000;0.000;2022-07-05T09:01:15;22.20;90.90
56869;DHT22;42754;0.000;0.000;2022-07-05T09:03:51;22.40;90.00
56869;DHT22;42754;0.000;0.000;2022-07-05T09:06:22;22.40;88.80
56869;DHT22;42754;0.000;0.000;2022-07-05T09:08:51;22.70;89.60
56869;DHT22;42754;0.000;0.000;2022-07-05T09:14:25;22.90;88.00
56869;DHT22;42754;0.000;0.000;2022-07-05T09:16:51;22.90;88.40
56869;DHT22;42754;0.000;0.000;2022-07-05T09:19:17;22.70;87.00
56869;DHT22;42754;0.000;0.000;2022-07-05T09:21:43;22.50;87.40
56869;DHT22;42754;0.000;0.000;2022-07-05T09:24:10;22.40;85.20
56869;DHT22;42754;0.000;0.000;2022-07-05T09:26:41;22.40;85.90
56869;DHT22;42754;0.000;0.000;2022-07-05T09:29:12;22.40;86.30
56869;DHT22;42754;0.000;0.000;2022-07-05T09:31:40;22.80;84.70
56869;DHT22;42754;0.000;0.000;2022-07-05T09:34:08;22.90;86.30
56869;DHT22;42754;0.000;0.000;2022-07-05T09:42:20;23.80;81.40
56869;DHT22;42754;0.000;0.000;2022-07-05T09:44:57;23.80;81.80
56869;DHT22;42754;0.000;0.000;2022-07-05T09:47:24;24.20;81.20
56869;DHT22;42754;0.000;0.000;2022-07-05T09:49:56;24.60;79.50
56869;DHT22;42754;0.000;0.000;2022-07-05T09:52:32;24.40;81.50
56869;DHT22;42754;0.000;0.000;2022-07-05T09:55:13;24.70;80.30
56869;DHT22;42754;0.000;0.000;2022-07-05T09:57:42;24.90;81.90
56869;DHT22;42754;0.000;0.000;2022-07-05T10:00:19;24.00;81.30
56869;DHT22;42754;0.000;0.000;2022-07-05T10:02:47;23.70;82.10
56869;DHT22;42754;0.000;0.000;2022-07-05T10:05:21;23.20;83.20
56869;DHT22;42754;0.000;0.000;2022-07-05T10:10:17;22.70;84.30
56869;DHT22;42754;0.000;0.000;2022-07-05T10:12:46;23.30;85.60
56869;DHT22;42754;0.000;0.000;2022-07-05T10:15:13;23.70;84.00
56869;DHT22;42754;0.000;0.000;2022-07-05T10:18:06;24.10;85.40
56869;DHT22;42754;0.000;0.000;2022-07-05T10:23:03;23.50;83.00
56869;DHT22;42754;0.000;0.000;2022-07-05T10:25:29;24.00;84.80
56869;DHT22;42754;0.000;0.000;2022-07-05T10:27:55;24.30;82.50
56869;DHT22;42754;0.000;0.000;2022-07-05T10:30:23;24.50;83.70
56869;DHT22;42754;0.000;0.000;2022-07-05T10:32:49;24.60;83.30
56869;DHT22;42754;0.000;0.000;2022-07-05T10:35:16;24.40;82.30
56869;DHT22;42754;0.000;0.000;2022-07-05T10:37:43;24.30;83.30
56869;DHT22;42754;0.000;0.000;2022-07-05T10:40:09;24.00;81.80
56869;DHT22;42754;0.000;0.000;2022-07-05T10:42:39;23.90;84.70
56869;DHT22;42754;0.000;0.000;2022-07-05T10:45:25;23.80;84.00
56869;DHT22;42754;0.000;0.000;2022-07-05T10:50:52;23.50;83.80
56869;DHT22;42754;0.000;0.000;2022-07-05T10:53:22;24.10;83.80
56869;DHT22;42754;0.000;0.000;2022-07-05T11:11:30;23.10;84.00
56869;DHT22;42754;0.000;0.000;2022-07-05T11:13:56;23.00;85.90
56869;DHT22;42754;0.000;0.000;2022-07-05T11:16:31;22.80;85.50
56869;DHT22;42754;0.000;0.000;2022-07-05T11:19:16;22.40;86.50
56869;DHT22;42754;0.000;0.000;2022-07-05T11:22:04;22.20;87.20
56869;DHT22;42754;0.000;0.000;2022-07-05T11:24:37;22.00;87.10
56869;DHT22;42754;0.000;0.000;2022-07-05T11:27:10;22.00;86.90
56869;DHT22;42754;0.000;0.000;2022-07-05T11:29:48;22.00;86.20
56869;DHT22;42754;0.000;0.000;2022-07-05T11:34:49;22.40;86.00
56869;DHT22;42754;0.000;0.000;2022-07-05T11:37:23;23.00;86.20
56869;DHT22;42754;0.000;0.000;2022-07-05T11:42:31;22.50;82.50
56869;DHT22;42754;0.000;0.000;2022-07-05T11:44:57;22.60;83.50
56869;DHT22;42754;0.000;0.000;2022-07-05T11:47:23;22.50;84.10
56869;DHT22;42754;0.000;0.000;2022-07-05T11:49:56;22.70;86.10
56869;DHT22;42754;0.000;0.000;2022-07-05T11:52:30;23.30;85.10
56869;DHT22;42754;0.000;0.000;2022-07-05T11:54:57;23.70;82.20
56869;DHT22;42754;0.000;0.000;2022-07-05T11:57:23;23.30;85.80
56869;DHT22;42754;0.000;0.000;2022-07-05T11:59:49;23.10;86.70
56869;DHT22;42754;0.000;0.000;2022-07-05T12:02:15;22.90;86.90
56869;DHT22;42754;0.000;0.000;2022-07-05T12:04:51;22.80;84.30
56869;DHT22;42754;0.000;0.000;2022-07-05T12:07:35;22.90;84.40
56869;DHT22;42754;0.000;0.000;2022-07-05T12:10:03;22.80;84.70
56869;DHT22;42754;0.000;0.000;2022-07-05T12:12:48;22.90;83.60
56869;DHT22;42754;0.000;0.000;2022-07-05T12:15:21;23.50;82.80
56869;DHT22;42754;0.000;0.000;2022-07-05T12:17:49;24.10;81.00
56869;DHT22;42754;0.000;0.000;2022-07-05T12:20:20;24.70;81.80
56869;DHT22;42754;0.000;0.000;2022-07-05T12:22:47;24.10;76.70
56869;DHT22;42754;0.000;0.000;2022-07-05T12:25:15;23.60;79.50
56869;DHT22;42754;0.000;0.000;2022-07-05T12:27:43;23.50;80.00
56869;DHT22;42754;0.000;0.000;2022-07-05T12:30:11;23.20;81.50
56869;DHT22;42754;0.000;0.000;2022-07-05T12:32:56;23.70;82.30
56869;DHT22;42754;0.000;0.000;2022-07-05T12:35:34;23.60;80.80
56869;DHT22;42754;0.000;0.000;2022-07-05T12:38:07;23.80;79.10
56869;DHT22;42754;0.000;0.000;2022-07-05T12:40:35;24.40;77.60
56869;DHT22;42754;0.000;0.000;2022-07-05T12:43:06;24.80;79.00
56869;DHT22;42754;0.000;0.000;2022-07-05T12:45:32;25.10;79.60
56869;DHT22;42754;0.000;0.000;2022-07-05T12:48:01;25.00;75.30
56869;DHT22;42754;0.000;0.000;2022-07-05T12:50:28;25.10;77.10
56869;DHT22;42754;0.000;0.000;2022-07-05T12:55:51;24.20;76.10
56869;DHT22;42754;0.000;0.000;2022-07-05T12:59:03;23.80;77.80
56869;DHT22;42754;0.000;0.000;2022-07-05T13:01:34;23.40;79.30
56869;DHT22;42754;0.000;0.000;2022-07-05T13:04:12;23.30;82.10
56869;DHT22;42754;0.000;0.000;2022-07-05T13:06:48;23.40;80.60
56869;DHT22;42754;0.000;0.000;2022-07-05T13:09:29;23.20;80.60
56869;DHT22;42754;0.000;0.000;2022-07-05T13:12:18;23.40;80.40
56869;DHT22;42754;0.000;0.000;2022-07-05T13:14:48;23.90;80.60
56869;DHT22;42754;0.000;0.000;2022-07-05T13:17:15;24.00;78.40
56869;DHT22;42754;0.000;0.000;2022-07-05T13:19:42;23.70;79.70
56869;DHT22;42754;0.000;0.000;2022-07-05T13:22:09;23.70;81.00
56869;DHT22;42754;0.000;0.000;2022-07-05T13:24:35;23.20;80.80
56869;DHT22;42754;0.000;0.000;2022-07-05T13:27:01;22.90;81.30
56869;DHT22;42754;0.000;0.000;2022-07-05T13:29:28;23.50;82.80
56869;DHT22;42754;0.000;0.000;2022-07-05T13:31:53;23.60;82.40
56869;DHT22;42754;0.000;0.000;2022-07-05T13:34:19;24.00;80.00
56869;DHT22;42754;0.000;0.000;2022-07-05T13:36:50;24.40;79.20
56869;DHT22;42754;0.000;0.000;2022-07-05T13:39:17;24.70;80.20
56869;DHT22;42754;0.000;0.000;2022-07-05T13:41:42;25.10;79.20
56869;DHT22;42754;0.000;0.000;2022-07-05T13:44:08;24.60;77.20
56869;DHT22;42754;0.000;0.000;2022-07-05T13:46:34;24.70;77.10
56869;DHT22;42754;0.000;0.000;2022-07-05T13:48:59;24.90;77.70
56869;DHT22;42754;0.000;0.000;2022-07-05T13:51:25;24.60;77.50
56869;DHT22;42754;0.000;0.000;2022-07-05T13:53:51;24.20;78.70
56869;DHT22;42754;0.000;0.000;2022-07-05T13:56:16;24.30;79.10
56869;DHT22;42754;0.000;0.000;2022-07-05T13:58:42;24.80;80.00
56869;DHT22;42754;0.000;0.000;2022-07-05T14:01:08;24.90;76.80
56869;DHT22;42754;0.000;0.000;2022-07-05T14:03:33;25.40;75.90
56869;DHT22;42754;0.000;0.000;2022-07-05T14:05:59;25.00;76.40
56869;DHT22;42754;0.000;0.000;2022-07-05T14:08:24;24.50;75.80
56869;DHT22;42754;0.000;0.000;2022-07-05T14:10:52;24.10;77.60
56869;DHT22;42754;0.000;0.000;2022-07-05T14:13:22;24.10;77.50
56869;DHT22;42754;0.000;0.000;2022-07-05T14:15:48;24.30;76.50
56869;DHT22;42754;0.000;0.000;2022-07-05T14:18:15;24.40;76.90
56869;DHT22;42754;0.000;0.000;2022-07-05T14:20:42;24.10;75.50
56869;DHT22;42754;0.000;0.000;2022-07-05T14:23:09;24.70;77.00
56869;DHT22;42754;0.000;0.000;2022-07-05T14:25:36;24.70;76.90
56869;DHT22;42754;0.000;0.000;2022-07-05T14:28:01;24.20;75.20
56869;DHT22;42754;0.000;0.000;2022-07-05T14:30:33;23.60;76.00
56869;DHT22;42754;0.000;0.000;2022-07-05T14:32:59;23.30;76.10
56869;DHT22;42754;0.000;0.000;2022-07-05T14:35:25;23.30;78.40
56869;DHT22;42754;0.000;0.000;2022-07-05T14:37:50;23.00;77.90
56869;DHT22;42754;0.000;0.000;2022-07-05T14:40:16;23.10;78.40
56869;DHT22;42754;0.000;0.000;2022-07-05T14:42:42;23.40;79.20
56869;DHT22;42754;0.000;0.000;2022-07-05T14:45:07;23.80;77.80
56869;DHT22;42754;0.000;0.000;2022-07-05T14:47:33;23.90;77.80
56869;DHT22;42754;0.000;0.000;2022-07-05T14:49:59;24.10;76.40
56869;DHT22;42754;0.000;0.000;2022-07-05T14:52:24;24.30;77.10
56869;DHT22;42754;0.000;0.000;2022-07-05T14:54:50;24.60;76.40
56869;DHT22;42754;0.000;0.000;2022-07-05T14:57:15;23.90;76.10
56869;DHT22;42754;0.000;0.000;2022-07-05T14:59:41;23.70;77.00
56869;DHT22;42754;0.000;0.000;2022-07-05T15:02:07;23.80;76.50
56869;DHT22;42754;0.000;0.000;2022-07-05T15:04:34;23.90;77.20
56869;DHT22;42754;0.000;0.000;2022-07-05T15:06:59;24.10;77.20
56869;DHT22;42754;0.000;0.000;2022-07-05T15:09:25;24.40;76.20
56869;DHT22;42754;0.000;0.000;2022-07-05T15:11:51;24.20;76.90
56869;DHT22;42754;0.000;0.000;2022-07-05T15:14:17;24.30;74.70
56869;DHT22;42754;0.000;0.000;2022-07-05T15:16:42;24.30;73.90
56869;DHT22;42754;0.000;0.000;2022-07-05T15:19:08;24.70;74.20
56869;DHT22;42754;0.000;0.000;2022-07-05T15:21:34;24.60;73.60
56869;DHT22;42754;0.000;0.000;2022-07-05T15:23:59;24.60;75.20
56869;DHT22;42754;0.000;0.000;2022-07-05T15:26:27;24.40;72.90
56869;DHT22;42754;0.000;0.000;2022-07-05T15:29:02;24.40;74.00
56869;DHT22;42754;0.000;0.000;2022-07-05T15:31:32;24.20;75.70
56869;DHT22;42754;0.000;0.000;2022-07-05T15:33:59;24.40;73.70
56869;DHT22;42754;0.000;0.000;2022-07-05T15:36:25;24.00;73.80
56869;DHT22;42754;0.000;0.000;2022-07-05T15:38:52;23.40;74.50
56869;DHT22;42754;0.000;0.000;2022-07-05T15:41:17;23.30;75.00
56869;DHT22;42754;0.000;0.000;2022-07-05T15:43:43;23.60;75.00
56869;DHT22;42754;0.000;0.000;2022-07-05T15:46:09;23.20;75.60
56869;DHT22;42754;0.000;0.000;2022-07-05T15:48:34;23.60;75.00
56869;DHT22;42754;0.000;0.000;2022-07-05T15:51:00;23.60;74.60
56869;DHT22;42754;0.000;0.000;2022-07-05T15:53:29;24.10;75.30
56869;DHT22;42754;0.000;0.000;2022-07-05T15:55:55;24.10;72.20
56869;DHT22;42754;0.000;0.000;2022-07-05T15:58:29;24.10;72.10
56869;DHT22;42754;0.000;0.000;2022-07-05T16:00:55;23.90;72.20
56869;DHT22;42754;0.000;0.000;2022-07-05T16:03:22;23.70;73.90
56869;DHT22;42754;0.000;0.000;2022-07-05T16:05:48;23.40;74.20
56869;DHT22;42754;0.000;0.000;2022-07-05T16:08:14;24.00;73.90
56869;DHT22;42754;0.000;0.000;2022-07-05T16:10:42;24.10;73.20
56869;DHT22;42754;0.000;0.000;2022-07-05T16:13:09;24.40;73.40
56869;DHT22;42754;0.000;0.000;2022-07-05T16:15:35;24.10;71.80
56869;DHT22;42754;0.000;0.000;2022-07-05T16:18:20;24.40;73.40
56869;DHT22;42754;0.000;0.000;2022-07-05T16:20:45;24.10;72.00
56869;DHT22;42754;0.000;0.000;2022-07-05T16:23:11;23.80;72.70
56869;DHT22;42754;0.000;0.000;2022-07-05T16:25:37;23.30;74.60
56869;DHT22;42754;0.000;0.000;2022-07-05T16:28:03;23.40;74.20
56869;DHT22;42754;0.000;0.000;2022-07-05T16:30:30;23.30;74.00